Time;durP1;ratioP1;P1;durP2;ratioP2;P2;SDS_P1;SDS_P2;PMS_P1;PMS_P2;Temp;Humidity;BMP_temperature;BMP_pressure;BME280_temperature;BME280_humidity;BME280_pressure;Samples;Min_cycle;Max_cycle;Signal;HPM_P1;HPM_P2
2022/03/22 00:00:33;;;;;;;;;;;1.50;69.80;;;;;;5103738;28;19965;-80
2022/03/22 00:02:58;;;;;;;;;;;1.50;70.40;;;;;;5102881;28;19972;-80
2022/03/22 00:05:24;;;;;;;;;;;1.50;70.40;;;;;;5083626;28;19908;-79
2022/03/22 00:07:50;;;;;;;;;;;1.40;71.20;;;;;;5102825;28;20123;-79
2022/03/22 00:10:16;;;;;;;;;;;1.40;71.80;;;;;;5102723;28;20007;-80
2022/03/22 00:12:42;;;;;;;;;;;1.40;71.40;;;;;;5083703;28;20478;-80
2022/03/22 00:15:08;;;;;;;;;;;1.40;71.00;;;;;;5102161;28;19951;-80
2022/03/22 00:17:34;;;;;;;;;;;1.40;71.10;;;;;;5102169;28;20006;-80
2022/03/22 00:20:00;;;;;;;;;;;1.30;72.00;;;;;;5101941;28;20003;-80
2022/03/22 00:22:26;;;;;;;;;;;1.60;72.20;;;;;;5102317;28;20336;-79
2022/03/22 00:24:51;;;;;;;;;;;1.30;71.10;;;;;;5102189;28;19908;-80
2022/03/22 00:27:17;;;;;;;;;;;1.20;71.10;;;;;;5083261;28;20618;-79
2022/03/22 00:29:42;;;;;;;;;;;1.10;70.80;;;;;;5102677;28;19908;-79
2022/03/22 00:32:08;;;;;;;;;;;1.10;71.40;;;;;;5105644;28;19912;-80
2022/03/22 00:34:44;;;;;;;;;;;1.10;71.70;;;;;;5107611;28;19908;-80
2022/03/22 00:37:17;;;;;;;;;;;1.10;71.30;;;;;;5107931;28;19914;-79
2022/03/22 00:39:43;;;;;;;;;;;1.10;70.80;;;;;;5086972;28;19911;-79
2022/03/22 00:42:10;;;;;;;;;;;1.00;70.70;;;;;;5084424;28;20125;-80
2022/03/22 00:44:37;;;;;;;;;;;1.40;71.00;;;;;;5102519;28;19908;-79
2022/03/22 00:47:03;;;;;;;;;;;1.10;71.90;;;;;;5083426;28;19907;-80
2022/03/22 00:49:30;;;;;;;;;;;1.10;71.50;;;;;;5102369;28;20257;-80
2022/03/22 00:51:55;;;;;;;;;;;1.90;71.30;;;;;;5102285;28;19926;-79
2022/03/22 00:54:21;;;;;;;;;;;1.10;71.30;;;;;;5083505;28;19911;-79
2022/03/22 00:56:48;;;;;;;;;;;1.10;71.20;;;;;;5101824;28;20407;-80
2022/03/22 01:01:58;;;;;;;;;;;1.00;71.00;;;;;;5107155;28;19954;-79
2022/03/22 01:04:24;;;;;;;;;;;1.00;72.00;;;;;;5087235;28;19907;-80
2022/03/22 01:06:50;;;;;;;;;;;1.00;71.80;;;;;;5088103;28;19908;-80
2022/03/22 01:09:15;;;;;;;;;;;1.00;72.20;;;;;;5107515;28;20155;-80
2022/03/22 01:11:42;;;;;;;;;;;1.00;72.30;;;;;;5108814;28;19950;-80
2022/03/22 01:14:08;;;;;;;;;;;1.00;73.00;;;;;;5108490;28;20115;-80
2022/03/22 01:16:34;;;;;;;;;;;1.00;72.80;;;;;;5106025;28;19938;-80
2022/03/22 01:19:00;;;;;;;;;;;0.90;72.50;;;;;;5102431;28;19907;-80
2022/03/22 01:21:25;;;;;;;;;;;0.90;73.20;;;;;;5102109;28;19908;-80
2022/03/22 01:23:52;;;;;;;;;;;0.90;73.50;;;;;;5101343;28;19916;-79
2022/03/22 01:26:19;;;;;;;;;;;0.90;72.80;;;;;;5082634;28;19947;-79
2022/03/22 01:28:46;;;;;;;;;;;0.80;72.70;;;;;;5081792;28;19984;-80
2022/03/22 01:31:11;;;;;;;;;;;0.90;72.70;;;;;;5081680;28;19915;-80
2022/03/22 01:33:37;;;;;;;;;;;0.90;72.80;;;;;;5100402;28;19927;-79
2022/03/22 01:36:02;;;;;;;;;;;1.20;72.80;;;;;;5100776;28;20287;-80
2022/03/22 01:38:28;;;;;;;;;;;0.90;73.70;;;;;;5100979;28;19908;-80
2022/03/22 01:40:54;;;;;;;;;;;0.90;74.10;;;;;;5082455;28;20432;-79
2022/03/22 01:43:20;;;;;;;;;;;0.80;74.10;;;;;;5100607;28;19986;-79
2022/03/22 01:45:47;;;;;;;;;;;0.80;74.40;;;;;;5100499;28;20432;-79
2022/03/22 01:48:14;;;;;;;;;;;1.30;74.90;;;;;;5100334;28;19915;-79
2022/03/22 01:50:41;;;;;;;;;;;0.80;74.90;;;;;;5100533;28;19939;-79
2022/03/22 01:53:08;;;;;;;;;;;-0.40;74.30;;;;;;5082053;28;20112;-79
2022/03/22 01:55:33;;;;;;;;;;;0.70;74.80;;;;;;5100805;28;19908;-79
2022/03/22 01:57:59;;;;;;;;;;;-0.50;74.30;;;;;;5100355;28;19908;-79
2022/03/22 02:00:24;;;;;;;;;;;0.60;74.80;;;;;;5099530;28;19963;-79
2022/03/22 02:05:56;;;;;;;;;;;0.50;76.20;;;;;;5100551;28;19930;-79
2022/03/22 02:08:26;;;;;;;;;;;0.50;75.50;;;;;;5100536;28;19930;-79
2022/03/22 02:10:52;;;;;;;;;;;0.50;76.30;;;;;;5100272;28;19924;-80
2022/03/22 02:13:18;;;;;;;;;;;0.50;76.20;;;;;;5082450;28;19920;-79
2022/03/22 02:15:45;;;;;;;;;;;0.40;76.70;;;;;;5100363;28;19930;-80
2022/03/22 02:18:11;;;;;;;;;;;0.30;76.70;;;;;;5082143;28;20419;-79
2022/03/22 02:20:37;;;;;;;;;;;0.30;77.20;;;;;;5100969;28;19995;-80
2022/03/22 02:23:14;;;;;;;;;;;1.80;78.40;;;;;;5101049;28;19934;-79
2022/03/22 02:25:40;;;;;;;;;;;-0.50;77.20;;;;;;5086300;28;19907;-80
2022/03/22 02:28:05;;;;;;;;;;;0.30;78.30;;;;;;5107201;28;19919;-80
2022/03/22 02:30:31;;;;;;;;;;;0.20;78.10;;;;;;5090818;28;19916;-79
2022/03/22 02:32:59;;;;;;;;;;;0.20;78.40;;;;;;5109745;28;20112;-80
2022/03/22 02:35:24;;;;;;;;;;;0.20;78.10;;;;;;5090568;28;19995;-80
2022/03/22 02:37:50;;;;;;;;;;;0.20;78.60;;;;;;5104536;28;19950;-80
2022/03/22 02:40:16;;;;;;;;;;;0.20;78.30;;;;;;5084892;28;19969;-79
2022/03/22 02:42:43;;;;;;;;;;;0.10;78.50;;;;;;5102653;28;19912;-79
2022/03/22 02:45:09;;;;;;;;;;;0.10;78.60;;;;;;5085279;28;19969;-79
2022/03/22 02:47:35;;;;;;;;;;;0.10;79.00;;;;;;5102553;28;20142;-79
2022/03/22 02:50:00;;;;;;;;;;;0.00;79.70;;;;;;5083636;28;19980;-80
2022/03/22 02:52:26;;;;;;;;;;;0.00;80.10;;;;;;5101770;28;20237;-79
2022/03/22 02:54:51;;;;;;;;;;;-0.10;80.10;;;;;;5102064;28;19991;-79
2022/03/22 02:57:17;;;;;;;;;;;0.00;80.00;;;;;;5101349;28;20272;-79
2022/03/22 02:59:45;;;;;;;;;;;0.10;80.00;;;;;;5107551;27;19920;-80
2022/03/22 03:02:11;;;;;;;;;;;0.00;80.40;;;;;;5092750;28;19907;-79
2022/03/22 03:04:36;;;;;;;;;;;0.10;79.90;;;;;;5109616;28;20397;-79
2022/03/22 03:07:02;;;;;;;;;;;0.00;79.70;;;;;;5086527;28;19911;-79
2022/03/22 03:09:28;;;;;;;;;;;0.00;80.00;;;;;;5104829;28;20122;-80
2022/03/22 03:11:53;;;;;;;;;;;0.00;80.10;;;;;;5110130;28;20206;-80
2022/03/22 03:17:03;;;;;;;;;;;0.00;80.40;;;;;;5105123;28;20036;-80
2022/03/22 03:19:28;;;;;;;;;;;0.00;80.40;;;;;;5104835;28;19998;-80
2022/03/22 03:21:54;;;;;;;;;;;0.00;80.30;;;;;;5085003;28;19911;-79
2022/03/22 03:24:21;;;;;;;;;;;0.00;80.50;;;;;;5084710;28;19908;-78
2022/03/22 03:26:46;;;;;;;;;;;0.00;80.80;;;;;;5103285;28;19908;-80
2022/03/22 03:29:12;;;;;;;;;;;0.00;80.40;;;;;;5084517;28;19914;-79
2022/03/22 03:31:37;;;;;;;;;;;-0.10;80.60;;;;;;5102837;28;19920;-79
2022/03/22 03:34:04;;;;;;;;;;;-0.10;80.80;;;;;;5103161;28;19996;-80
2022/03/22 03:36:29;;;;;;;;;;;0.40;80.90;;;;;;5084891;28;20366;-79
2022/03/22 03:38:55;;;;;;;;;;;-0.10;80.80;;;;;;5103261;28;19918;-79
2022/03/22 03:47:04;;;;;;;;;;;-0.20;81.50;;;;;;5019864;28;19910;-79
2022/03/22 03:49:30;;;;;;;;;;;-0.20;81.50;;;;;;5020201;28;20311;-80
2022/03/22 03:51:56;;;;;;;;;;;-0.20;81.80;;;;;;5009128;28;20015;-80
2022/03/22 03:54:21;;;;;;;;;;;-0.30;81.80;;;;;;5009344;28;19932;-79
2022/03/22 03:56:47;;;;;;;;;;;-0.30;82.60;;;;;;5026783;28;20362;-79
2022/03/22 03:59:13;;;;;;;;;;;-0.30;82.90;;;;;;5016285;28;20455;-79
2022/03/22 04:01:39;;;;;;;;;;;-0.30;83.70;;;;;;4985222;28;20378;-79
2022/03/22 04:04:05;;;;;;;;;;;-0.30;83.90;;;;;;5000743;28;19910;-79
2022/03/22 04:06:30;;;;;;;;;;;-0.30;84.10;;;;;;4999646;28;19964;-79
2022/03/22 04:08:56;;;;;;;;;;;-0.40;84.30;;;;;;4983288;28;19909;-80
2022/03/22 04:11:22;;;;;;;;;;;-2.10;83.40;;;;;;4999233;28;19929;-79
2022/03/22 04:13:48;;;;;;;;;;;0.20;84.90;;;;;;5000396;28;19917;-79
2022/03/22 04:16:13;;;;;;;;;;;-0.40;84.60;;;;;;5005131;28;20627;-79
2022/03/22 04:18:39;;;;;;;;;;;-0.50;84.50;;;;;;5006554;28;20494;-80
2022/03/22 04:21:05;;;;;;;;;;;-0.60;84.40;;;;;;4991940;28;20289;-79
2022/03/22 04:23:30;;;;;;;;;;;1.50;85.60;;;;;;5013995;28;20129;-79
2022/03/22 04:25:57;;;;;;;;;;;-0.60;84.50;;;;;;5086535;28;20133;-79
2022/03/22 04:33:51;;;;;;;;;;;-0.70;84.50;;;;;;5082894;28;19919;-79
2022/03/22 04:36:17;;;;;;;;;;;-0.70;84.40;;;;;;5063571;28;19912;-79
2022/03/22 04:38:43;;;;;;;;;;;-0.80;84.80;;;;;;5081705;28;19965;-79
2022/03/22 04:41:09;;;;;;;;;;;-0.80;84.90;;;;;;5081731;28;19955;-79
2022/03/22 04:43:34;;;;;;;;;;;-0.80;85.20;;;;;;5062784;28;20018;-79
2022/03/22 04:46:01;;;;;;;;;;;-0.90;85.40;;;;;;5080966;28;20244;-79
2022/03/22 04:48:27;;;;;;;;;;;-0.90;85.50;;;;;;5080926;28;20802;-79
2022/03/22 04:56:43;;;;;;;;;;;-0.90;85.60;;;;;;5080793;28;20011;-80
2022/03/22 04:59:07;;;;;;;;;;;-0.90;85.40;;;;;;5088655;28;20461;-79
2022/03/22 05:01:32;;;;;;;;;;;-0.80;84.80;;;;;;5083663;28;19919;-79
2022/03/22 05:03:58;;;;;;;;;;;-0.90;84.40;;;;;;5101969;28;20002;-79
2022/03/22 05:06:26;;;;;;;;;;;-0.90;83.90;;;;;;5101789;28;19907;-80
2022/03/22 05:08:55;;;;;;;;;;;-0.90;83.80;;;;;;5101282;28;19945;-79
2022/03/22 05:11:21;;;;;;;;;;;-0.90;84.10;;;;;;5101304;28;20011;-79
2022/03/22 05:13:46;;;;;;;;;;;-0.90;84.70;;;;;;5100806;28;20014;-79
2022/03/22 05:16:12;;;;;;;;;;;-0.90;84.60;;;;;;5101342;28;19908;-79
2022/03/22 05:18:38;;;;;;;;;;;-0.90;84.70;;;;;;5088269;28;19908;-80
2022/03/22 05:21:04;;;;;;;;;;;-0.80;85.00;;;;;;5107184;28;20362;-78
2022/03/22 05:23:33;;;;;;;;;;;-0.80;85.10;;;;;;5086666;28;19938;-80
2022/03/22 05:25:59;;;;;;;;;;;-0.90;84.90;;;;;;5101347;28;20382;-80
2022/03/22 05:28:24;;;;;;;;;;;-0.90;85.00;;;;;;5082266;28;19908;-79
2022/03/22 05:30:50;;;;;;;;;;;-0.90;85.90;;;;;;5100412;28;19982;-79
2022/03/22 05:33:18;;;;;;;;;;;0.10;86.30;;;;;;5100704;28;20235;-79
2022/03/22 05:35:44;;;;;;;;;;;-0.60;85.70;;;;;;5082228;28;19914;-80
2022/03/22 05:38:12;;;;;;;;;;;-0.80;85.50;;;;;;5081807;28;19908;-79
2022/03/22 05:40:39;;;;;;;;;;;-0.80;85.90;;;;;;5100561;28;19916;-79
2022/03/22 05:43:05;;;;;;;;;;;-0.70;85.10;;;;;;5082155;28;19911;-79
2022/03/22 05:45:31;;;;;;;;;;;-0.70;84.90;;;;;;5081987;28;20202;-79
2022/03/22 05:48:01;;;;;;;;;;;-0.60;84.60;;;;;;5081487;28;20314;-79
2022/03/22 05:50:27;;;;;;;;;;;-0.50;84.40;;;;;;5081857;28;20004;-79
2022/03/22 05:52:53;;;;;;;;;;;-0.50;84.30;;;;;;5081933;28;19958;-79
2022/03/22 05:55:18;;;;;;;;;;;-0.30;84.60;;;;;;5082124;28;19908;-79
2022/03/22 05:57:44;;;;;;;;;;;-0.50;84.50;;;;;;5081263;28;19917;-79
2022/03/22 06:00:10;;;;;;;;;;;-0.40;84.30;;;;;;5100163;28;19949;-79
2022/03/22 06:02:37;;;;;;;;;;;-0.30;84.20;;;;;;5099989;28;19946;-79
2022/03/22 06:05:08;;;;;;;;;;;-0.20;83.70;;;;;;5081480;28;19908;-79
2022/03/22 06:07:36;;;;;;;;;;;-0.20;83.40;;;;;;5100101;28;19907;-79
2022/03/22 06:10:03;;;;;;;;;;;-0.10;83.10;;;;;;5082031;28;19912;-79
2022/03/22 06:12:39;;;;;;;;;;;-0.10;83.00;;;;;;5099939;28;19915;-79
2022/03/22 06:15:15;;;;;;;;;;;-0.10;82.90;;;;;;5100161;28;19908;-79
2022/03/22 06:17:43;;;;;;;;;;;0.00;82.70;;;;;;5083390;28;19912;-80
2022/03/22 06:20:09;;;;;;;;;;;0.00;82.30;;;;;;5081562;28;19927;-79
2022/03/22 06:22:35;;;;;;;;;;;0.10;82.20;;;;;;5101706;28;19908;-80
2022/03/22 06:25:00;;;;;;;;;;;0.20;81.80;;;;;;5084504;28;19908;-79
2022/03/22 06:27:26;;;;;;;;;;;0.30;81.00;;;;;;5101221;28;20018;-79
2022/03/22 06:29:51;;;;;;;;;;;0.50;80.10;;;;;;5082758;28;20085;-79
2022/03/22 06:32:17;;;;;;;;;;;0.60;80.10;;;;;;5100759;28;19918;-79
2022/03/22 06:34:43;;;;;;;;;;;0.70;79.90;;;;;;5104916;28;19914;-79
2022/03/22 06:37:08;;;;;;;;;;;1.60;80.00;;;;;;5103935;28;19908;-80
2022/03/22 06:39:34;;;;;;;;;;;1.70;79.30;;;;;;5104042;28;20119;-79
2022/03/22 06:42:00;;;;;;;;;;;1.20;78.10;;;;;;5104509;28;20330;-80
2022/03/22 06:44:26;;;;;;;;;;;1.00;77.40;;;;;;5105057;28;19912;-80
2022/03/22 06:46:51;;;;;;;;;;;1.10;76.70;;;;;;5107416;28;19908;-81
2022/03/22 06:49:17;;;;;;;;;;;1.20;76.30;;;;;;5107619;28;19972;-80
2022/03/22 06:51:43;;;;;;;;;;;1.50;74.90;;;;;;5106043;28;19926;-79
2022/03/22 06:54:08;;;;;;;;;;;1.50;74.30;;;;;;5105890;28;20176;-80
2022/03/22 06:56:34;;;;;;;;;;;1.70;74.30;;;;;;5105968;28;19991;-80
2022/03/22 06:58:59;;;;;;;;;;;1.90;72.80;;;;;;5105869;28;20589;-79
2022/03/22 07:01:25;;;;;;;;;;;2.10;71.50;;;;;;5107113;28;20417;-79
2022/03/22 07:03:50;;;;;;;;;;;2.20;71.50;;;;;;5109835;28;19912;-79
2022/03/22 07:06:16;;;;;;;;;;;2.30;70.70;;;;;;5111662;28;19912;-79
2022/03/22 07:08:42;;;;;;;;;;;2.50;69.10;;;;;;5110863;28;20402;-79
2022/03/22 07:13:52;;;;;;;;;;;2.80;68.30;;;;;;5107868;28;19922;-79
2022/03/22 07:16:19;;;;;;;;;;;2.90;67.00;;;;;;5107605;28;20462;-80
2022/03/22 07:18:44;;;;;;;;;;;3.10;67.70;;;;;;5108599;28;19908;-79
2022/03/22 07:21:10;;;;;;;;;;;3.20;66.20;;;;;;5112467;28;19915;-80
2022/03/22 07:23:35;;;;;;;;;;;3.30;64.50;;;;;;5116036;28;19931;-79
2022/03/22 07:26:01;;;;;;;;;;;3.40;63.50;;;;;;5115396;28;19908;-79
2022/03/22 07:28:27;;;;;;;;;;;3.60;62.60;;;;;;5116168;28;20113;-80
2022/03/22 07:30:53;;;;;;;;;;;3.70;61.00;;;;;;5115486;28;19915;-80
2022/03/22 07:33:18;;;;;;;;;;;3.80;61.00;;;;;;5108688;28;19930;-80
2022/03/22 07:35:44;;;;;;;;;;;3.90;60.00;;;;;;5107817;28;19992;-79
2022/03/22 07:38:10;;;;;;;;;;;4.00;60.10;;;;;;5105851;28;20314;-79
2022/03/22 07:40:35;;;;;;;;;;;4.20;60.00;;;;;;5105683;28;20018;-79
2022/03/22 07:43:01;;;;;;;;;;;5.30;59.90;;;;;;5087138;28;19916;-79
2022/03/22 07:45:26;;;;;;;;;;;4.40;58.20;;;;;;5104614;28;20351;-79
2022/03/22 07:47:53;;;;;;;;;;;4.30;58.40;;;;;;5105600;28;19930;-79
2022/03/22 07:53:05;;;;;;;;;;;4.50;58.50;;;;;;5105957;28;19984;-79
2022/03/22 07:55:33;;;;;;;;;;;4.70;56.10;;;;;;5105237;28;19908;-79
2022/03/22 07:57:58;;;;;;;;;;;4.90;55.50;;;;;;5105197;28;19907;-80
2022/03/22 08:00:25;;;;;;;;;;;4.90;54.00;;;;;;5085605;28;20429;-80
2022/03/22 08:02:54;;;;;;;;;;;4.80;54.00;;;;;;5104219;28;19908;-79
2022/03/22 08:05:21;;;;;;;;;;;5.00;54.00;;;;;;5086300;28;19908;-80
2022/03/22 08:07:46;;;;;;;;;;;5.10;53.10;;;;;;5104115;28;20271;-80
2022/03/22 08:10:13;;;;;;;;;;;5.30;52.80;;;;;;5104132;28;19923;-80
2022/03/22 08:12:39;;;;;;;;;;;5.50;52.60;;;;;;5086669;28;19923;-80
2022/03/22 08:15:05;;;;;;;;;;;5.50;52.30;;;;;;5104419;28;19912;-79
2022/03/22 08:17:30;;;;;;;;;;;5.70;51.70;;;;;;5104837;28;20116;-80
2022/03/22 08:19:56;;;;;;;;;;;5.90;51.60;;;;;;5104145;28;20446;-79
2022/03/22 08:22:24;;;;;;;;;;;5.90;50.80;;;;;;5087064;28;20600;-80
2022/03/22 08:24:52;;;;;;;;;;;6.20;50.40;;;;;;5104643;28;19908;-79
2022/03/22 08:27:18;;;;;;;;;;;6.10;50.50;;;;;;5085689;28;19955;-79
2022/03/22 08:29:44;;;;;;;;;;;6.10;50.40;;;;;;5084760;28;20244;-80
2022/03/22 08:32:09;;;;;;;;;;;6.20;49.40;;;;;;5102681;28;19916;-80
2022/03/22 08:34:35;;;;;;;;;;;6.40;48.90;;;;;;5102548;28;19972;-80
2022/03/22 08:37:02;;;;;;;;;;;6.50;48.90;;;;;;5102600;28;19907;-79
2022/03/22 08:39:28;;;;;;;;;;;6.70;48.20;;;;;;5104869;28;19919;-78
2022/03/22 08:41:53;;;;;;;;;;;6.70;48.30;;;;;;5084406;28;19912;-80
2022/03/22 08:44:20;;;;;;;;;;;7.00;48.00;;;;;;5104779;28;19912;-79
2022/03/22 08:46:46;;;;;;;;;;;7.00;47.20;;;;;;5084875;28;19969;-79
2022/03/22 08:49:12;;;;;;;;;;;7.30;46.70;;;;;;5103221;28;20481;-80
2022/03/22 08:51:37;;;;;;;;;;;7.40;46.70;;;;;;5103842;28;19920;-79
2022/03/22 08:54:06;;;;;;;;;;;7.50;46.80;;;;;;5103704;28;19976;-80
2022/03/22 08:56:32;;;;;;;;;;;7.60;46.80;;;;;;5085259;28;19908;-80
2022/03/22 08:58:57;;;;;;;;;;;7.60;46.40;;;;;;5104113;28;19927;-79
2022/03/22 09:01:27;;;;;;;;;;;7.60;46.90;;;;;;5103651;28;20165;-80
2022/03/22 09:06:40;;;;;;;;;;;7.80;46.40;;;;;;5104001;28;20003;-79
2022/03/22 09:09:06;;;;;;;;;;;7.80;46.20;;;;;;5084307;28;19908;-80
2022/03/22 09:11:33;;;;;;;;;;;8.00;46.50;;;;;;5084621;28;20332;-80
2022/03/22 09:13:59;;;;;;;;;;;8.20;46.20;;;;;;5103631;28;20395;-80
2022/03/22 09:16:26;;;;;;;;;;;8.40;46.40;;;;;;5084473;28;20584;-80
2022/03/22 09:18:52;;;;;;;;;;;8.50;45.90;;;;;;5084974;28;19908;-79
2022/03/22 09:21:18;;;;;;;;;;;8.60;45.40;;;;;;5102075;28;19927;-80
2022/03/22 09:23:44;;;;;;;;;;;8.70;45.10;;;;;;5104450;28;19919;-80
2022/03/22 09:26:10;;;;;;;;;;;8.80;44.90;;;;;;5084638;28;19957;-80
2022/03/22 09:28:37;;;;;;;;;;;9.10;45.90;;;;;;5085173;28;20377;-80
2022/03/22 09:31:02;;;;;;;;;;;9.40;44.10;;;;;;5085376;28;19939;-80
2022/03/22 09:33:28;;;;;;;;;;;9.30;43.80;;;;;;5084598;28;19916;-80
2022/03/22 09:35:57;;;;;;;;;;;9.20;43.60;;;;;;5106782;28;20003;-81
2022/03/22 09:38:22;;;;;;;;;;;9.50;43.40;;;;;;5090252;28;20452;-79
2022/03/22 09:40:49;;;;;;;;;;;9.70;43.50;;;;;;5091157;28;19912;-80
2022/03/22 09:43:18;;;;;;;;;;;9.90;43.10;;;;;;5094028;28;19919;-80
2022/03/22 09:45:45;;;;;;;;;;;10.00;42.90;;;;;;5087615;28;19953;-79
2022/03/22 09:48:10;;;;;;;;;;;10.00;42.90;;;;;;5106157;28;19907;-80
2022/03/22 09:53:20;;;;;;;;;;;10.00;42.50;;;;;;5106293;28;19919;-80
2022/03/22 09:55:45;;;;;;;;;;;10.10;41.90;;;;;;5087338;28;20383;-80
2022/03/22 09:58:11;;;;;;;;;;;10.30;41.80;;;;;;5087768;28;19912;-80
2022/03/22 10:00:38;;;;;;;;;;;10.50;41.40;;;;;;5087613;28;20326;-80
2022/03/22 10:03:03;;;;;;;;;;;10.60;40.80;;;;;;5107697;28;19920;-81
2022/03/22 10:05:29;;;;;;;;;;;10.80;41.10;;;;;;5108232;28;19915;-80
2022/03/22 10:08:05;;;;;;;;;;;10.80;40.70;;;;;;5088652;28;20471;-80
2022/03/22 10:10:32;;;;;;;;;;;10.50;41.00;;;;;;5089031;28;19916;-80
2022/03/22 10:13:01;;;;;;;;;;;10.60;41.20;;;;;;5106448;28;19919;-80
2022/03/22 10:15:37;;;;;;;;;;;10.80;41.30;;;;;;5107897;28;19908;-80
2022/03/22 10:18:09;;;;;;;;;;;11.10;42.90;;;;;;5111065;28;20052;-80
2022/03/22 10:20:36;;;;;;;;;;;11.20;40.20;;;;;;5093114;28;20374;-81
2022/03/22 10:23:02;;;;;;;;;;;11.40;39.90;;;;;;5091409;28;20370;-80
2022/03/22 10:25:32;;;;;;;;;;;11.70;39.80;;;;;;5108502;28;19986;-80
2022/03/22 10:27:59;;;;;;;;;;;11.80;39.30;;;;;;5092000;28;19915;-80
2022/03/22 10:30:25;;;;;;;;;;;12.10;39.10;;;;;;5093001;28;19916;-81
2022/03/22 10:32:51;;;;;;;;;;;12.20;38.30;;;;;;5113139;28;19908;-81
2022/03/22 10:35:20;;;;;;;;;;;12.30;38.30;;;;;;5092360;28;19908;-81
2022/03/22 10:37:46;;;;;;;;;;;12.40;38.50;;;;;;5083430;28;20378;-80
2022/03/22 10:40:26;;;;;;;;;;;12.70;39.20;;;;;;5081929;28;19919;-81
2022/03/22 10:42:53;;;;;;;;;;;12.90;37.30;;;;;;5099582;28;19912;-80
2022/03/22 10:45:20;;;;;;;;;;;13.00;38.00;;;;;;5100018;28;19912;-80
2022/03/22 10:47:46;;;;;;;;;;;13.20;36.60;;;;;;5098873;28;19999;-81
2022/03/22 10:50:12;;;;;;;;;;;13.20;36.70;;;;;;5097584;28;20275;-80
2022/03/22 10:52:47;;;;;;;;;;;13.40;36.30;;;;;;5079327;28;20108;-80
2022/03/22 10:55:20;;;;;;;;;;;13.70;35.60;;;;;;5079915;28;20265;-82
2022/03/22 10:57:50;;;;;;;;;;;13.90;35.40;;;;;;5079685;28;20359;-81
2022/03/22 11:00:16;;;;;;;;;;;13.90;35.70;;;;;;5097746;28;19926;-80
2022/03/22 11:02:42;;;;;;;;;;;13.80;35.60;;;;;;5079862;28;19908;-81
2022/03/22 11:05:08;;;;;;;;;;;14.00;35.30;;;;;;5098355;28;20429;-81
2022/03/22 11:07:39;;;;;;;;;;;14.30;35.20;;;;;;5096998;28;20253;-80
2022/03/22 11:10:06;;;;;;;;;;;14.40;34.60;;;;;;5079447;28;19912;-81
2022/03/22 11:12:33;;;;;;;;;;;14.60;34.20;;;;;;5079698;28;19927;-80
2022/03/22 11:14:58;;;;;;;;;;;14.70;33.80;;;;;;5079264;28;19935;-80
2022/03/22 11:17:25;;;;;;;;;;;14.80;33.40;;;;;;5097729;28;20204;-78
2022/03/22 11:19:51;;;;;;;;;;;14.90;32.90;;;;;;5098992;28;19908;-79
2022/03/22 11:22:18;;;;;;;;;;;15.10;33.10;;;;;;5101590;28;20030;-80
2022/03/22 11:24:44;;;;;;;;;;;15.30;33.10;;;;;;5082624;28;19908;-78
2022/03/22 11:27:10;;;;;;;;;;;15.20;31.70;;;;;;5082950;28;19907;-78
2022/03/22 11:29:39;;;;;;;;;;;15.40;32.30;;;;;;5101014;28;20060;-78
2022/03/22 11:34:57;;;;;;;;;;;15.50;31.20;;;;;;5101409;28;19919;-79
2022/03/22 11:37:32;;;;;;;;;;;16.10;31.20;;;;;;5101459;28;19908;-79
2022/03/22 11:42:57;;;;;;;;;;;16.00;30.60;;;;;;5101000;28;20232;-78
2022/03/22 11:45:25;;;;;;;;;;;16.50;28.90;;;;;;5100915;28;20540;-79
2022/03/22 11:47:53;;;;;;;;;;;16.80;30.60;;;;;;5101027;28;20214;-79
2022/03/22 11:50:21;;;;;;;;;;;17.10;29.50;;;;;;5100891;28;20212;-79
2022/03/22 11:52:51;;;;;;;;;;;17.40;29.80;;;;;;5101368;28;19915;-79
2022/03/22 11:55:24;;;;;;;;;;;17.80;29.10;;;;;;5101026;28;20424;-79
2022/03/22 11:57:52;;;;;;;;;;;18.20;28.40;;;;;;5100832;28;20218;-79
2022/03/22 12:00:19;;;;;;;;;;;18.40;28.70;;;;;;5101024;28;19923;-79
2022/03/22 12:02:52;;;;;;;;;;;18.50;28.00;;;;;;5100801;28;19912;-79
2022/03/22 12:05:18;;;;;;;;;;;18.00;27.80;;;;;;5100849;28;19956;-79
2022/03/22 12:07:45;;;;;;;;;;;18.70;27.60;;;;;;5100557;28;19969;-79
2022/03/22 12:10:12;;;;;;;;;;;18.70;27.60;;;;;;5100293;28;19911;-79
2022/03/22 12:12:38;;;;;;;;;;;18.70;27.70;;;;;;5101199;28;19927;-80
2022/03/22 12:15:05;;;;;;;;;;;18.90;27.70;;;;;;5100718;28;20439;-78
2022/03/22 12:17:31;;;;;;;;;;;19.00;27.10;;;;;;5100912;28;19999;-78
2022/03/22 12:20:00;;;;;;;;;;;19.00;27.80;;;;;;5082069;28;20435;-79
2022/03/22 12:22:26;;;;;;;;;;;19.20;27.70;;;;;;5100528;28;20192;-79
2022/03/22 12:24:52;;;;;;;;;;;19.30;28.00;;;;;;5100545;28;19923;-79
2022/03/22 12:27:18;;;;;;;;;;;19.60;27.50;;;;;;5105365;28;19912;-79
2022/03/22 12:29:44;;;;;;;;;;;19.70;27.30;;;;;;5109010;28;19908;-80
2022/03/22 12:32:20;;;;;;;;;;;19.80;27.20;;;;;;5111732;28;19916;-79
2022/03/22 12:34:46;;;;;;;;;;;20.00;27.20;;;;;;5112246;28;20166;-79
2022/03/22 12:37:13;;;;;;;;;;;20.10;27.10;;;;;;5111343;28;19912;-79
2022/03/22 12:39:41;;;;;;;;;;;20.20;26.70;;;;;;5110146;28;19912;-79
2022/03/22 12:42:07;;;;;;;;;;;20.20;27.20;;;;;;5100930;28;20176;-80
2022/03/22 12:44:33;;;;;;;;;;;20.20;27.20;;;;;;5101036;28;19938;-79
2022/03/22 12:46:59;;;;;;;;;;;20.20;26.70;;;;;;5103010;28;20433;-80
2022/03/22 12:49:26;;;;;;;;;;;20.10;26.80;;;;;;5100679;28;19934;-79
2022/03/22 12:51:52;;;;;;;;;;;19.40;26.70;;;;;;5081754;28;19924;-79
2022/03/22 12:54:17;;;;;;;;;;;19.50;27.30;;;;;;5081740;28;19969;-79
2022/03/22 12:56:47;;;;;;;;;;;22.20;28.20;;;;;;5100464;28;19907;-79
2022/03/22 12:59:19;;;;;;;;;;;19.10;26.60;;;;;;5100270;28;19930;-79
2022/03/22 13:01:45;;;;;;;;;;;19.30;27.80;;;;;;5100376;28;20543;-79
2022/03/22 13:04:11;;;;;;;;;;;19.40;27.50;;;;;;5099936;28;20038;-80
2022/03/22 13:06:36;;;;;;;;;;;19.60;27.30;;;;;;5099696;28;20200;-79
2022/03/22 13:11:46;;;;;;;;;;;19.70;26.60;;;;;;5099228;28;20144;-79
2022/03/22 13:16:56;;;;;;;;;;;20.40;26.50;;;;;;5099469;28;19930;-79
2022/03/22 13:19:22;;;;;;;;;;;20.50;26.90;;;;;;5080650;28;20398;-80
2022/03/22 13:21:48;;;;;;;;;;;20.70;26.40;;;;;;5083110;28;19912;-79
2022/03/22 13:24:20;;;;;;;;;;;20.70;26.20;;;;;;5105284;28;20261;-79
2022/03/22 13:26:57;;;;;;;;;;;20.70;26.40;;;;;;5108676;28;20180;-80
2022/03/22 13:29:24;;;;;;;;;;;20.30;25.80;;;;;;5107755;28;19908;-79
2022/03/22 13:31:59;;;;;;;;;;;20.30;26.00;;;;;;5111707;28;19982;-79
2022/03/22 13:34:26;;;;;;;;;;;20.40;26.80;;;;;;5108689;28;20461;-79
2022/03/22 13:37:02;;;;;;;;;;;20.60;26.90;;;;;;5108248;28;19973;-78
2022/03/22 13:39:28;;;;;;;;;;;20.90;26.80;;;;;;5104950;28;19912;-79
2022/03/22 13:42:03;;;;;;;;;;;21.10;27.20;;;;;;5099481;28;19983;-80
2022/03/22 13:44:29;;;;;;;;;;;21.10;25.80;;;;;;5099327;28;19972;-79
2022/03/22 13:46:59;;;;;;;;;;;21.20;27.10;;;;;;5099295;28;19908;-79
2022/03/22 13:49:34;;;;;;;;;;;21.20;26.20;;;;;;5080772;28;20219;-79
2022/03/22 13:52:00;;;;;;;;;;;21.20;26.50;;;;;;5099012;28;19977;-81
2022/03/22 13:54:25;;;;;;;;;;;21.30;26.30;;;;;;5098885;28;19912;-81
2022/03/22 13:56:55;;;;;;;;;;;21.40;26.00;;;;;;5080131;28;19907;-81
2022/03/22 13:59:24;;;;;;;;;;;21.30;26.10;;;;;;5080306;28;20006;-80
2022/03/22 14:01:52;;;;;;;;;;;21.20;26.00;;;;;;5081689;28;19911;-80
2022/03/22 14:04:20;;;;;;;;;;;21.30;26.40;;;;;;5098225;28;20564;-80
2022/03/22 14:06:46;;;;;;;;;;;21.60;26.80;;;;;;5098367;28;19908;-80
2022/03/22 14:09:11;;;;;;;;;;;21.70;26.30;;;;;;5079981;28;20092;-80
2022/03/22 14:11:37;;;;;;;;;;;22.00;26.40;;;;;;5098659;28;19923;-81
2022/03/22 14:14:03;;;;;;;;;;;21.60;26.00;;;;;;5079993;28;19912;-80
2022/03/22 14:16:28;;;;;;;;;;;21.60;26.30;;;;;;5098604;28;19911;-81
2022/03/22 14:18:54;;;;;;;;;;;21.80;26.40;;;;;;5098432;28;19977;-82
2022/03/22 14:21:19;;;;;;;;;;;22.00;26.30;;;;;;5098913;28;20142;-80
2022/03/22 14:23:45;;;;;;;;;;;22.10;26.00;;;;;;5079560;28;19915;-79
2022/03/22 14:26:11;;;;;;;;;;;22.00;26.20;;;;;;5079945;28;19908;-79
2022/03/22 14:28:36;;;;;;;;;;;22.00;26.10;;;;;;5099226;28;20283;-79
2022/03/22 14:31:02;;;;;;;;;;;22.20;26.20;;;;;;5080650;28;19919;-79
2022/03/22 14:33:28;;;;;;;;;;;22.10;26.10;;;;;;5080247;28;20279;-80
2022/03/22 14:35:54;;;;;;;;;;;22.20;26.30;;;;;;5098434;28;20227;-79
2022/03/22 14:38:23;;;;;;;;;;;22.40;26.30;;;;;;5098665;28;19918;-79
2022/03/22 14:40:49;;;;;;;;;;;22.60;25.80;;;;;;5081542;28;19915;-80
2022/03/22 14:43:16;;;;;;;;;;;22.70;26.00;;;;;;5098977;28;19923;-79
2022/03/22 14:45:48;;;;;;;;;;;22.90;26.00;;;;;;5098559;28;19908;-79
2022/03/22 14:48:18;;;;;;;;;;;22.20;25.90;;;;;;5098635;28;19927;-79
2022/03/22 14:50:45;;;;;;;;;;;21.90;25.70;;;;;;5098218;28;19959;-80
2022/03/22 14:58:47;;;;;;;;;;;22.20;26.20;;;;;;5102185;28;20056;-80
2022/03/22 14:58:48;;;;;;;;;;;22.60;26.00;;;;;;5102693;28;20096;-78
2022/03/22 15:01:15;;;;;;;;;;;22.30;25.80;;;;;;5084533;28;19985;-79
2022/03/22 15:03:42;;;;;;;;;;;22.40;26.00;;;;;;5101964;28;20390;-79
2022/03/22 15:06:09;;;;;;;;;;;22.60;26.00;;;;;;5102123;28;19943;-80
2022/03/22 15:08:36;;;;;;;;;;;23.20;26.50;;;;;;5101897;28;20007;-79
2022/03/22 15:11:02;;;;;;;;;;;21.80;26.20;;;;;;5101652;28;19951;-79